Time;durP1;ratioP1;P1;durP2;ratioP2;P2;SDS_P1;SDS_P2;PMS_P1;PMS_P2;Temp;Humidity;BMP_temperature;BMP_pressure;BME280_temperature;BME280_humidity;BME280_pressure;Samples;Min_cycle;Max_cycle;Signal;HPM_P1;HPM_P2
2023/08/13 00:57:42;;;;;;;15.52;11.40;;;;;;;;;;8303491;28;20125;-90
2023/08/13 01:34:33;;;;;;;20.17;12.63;;;;;;;;;;8225332;28;20081;-90
2023/08/13 03:45:31;;;;;;;14.98;11.63;;;;;;;;;;8459422;23;20093;-91
2023/08/13 03:49:35;;;;;;;17.30;12.38;;;;;;;;;;8301768;28;20045;-90
2023/08/13 03:53:37;;;;;;;18.27;12.48;;;;;;;;;;8281041;28;20077;-90
2023/08/13 03:57:41;;;;;;;16.83;12.60;;;;;;;;;;8281898;28;20463;-89
2023/08/13 04:01:46;;;;;;;14.55;11.25;;;;;;;;;;8280291;28;20057;-90
2023/08/13 04:05:50;;;;;;;13.35;11.18;;;;;;;;;;8277066;28;20049;-90
2023/08/13 04:09:53;;;;;;;12.90;10.40;;;;;;;;;;8289170;28;20088;-89
2023/08/13 04:14:00;;;;;;;16.00;10.95;;;;;;;;;;8270719;28;20046;-89
2023/08/13 04:18:11;;;;;;;13.43;9.25;;;;;;;;;;8276515;28;20068;-90
2023/08/13 04:22:15;;;;;;;12.18;9.27;;;;;;;;;;8275395;28;20141;-90
2023/08/13 04:26:18;;;;;;;10.75;8.52;;;;;;;;;;8295187;28;20056;-90
2023/08/13 04:30:21;;;;;;;10.50;8.48;;;;;;;;;;8311425;28;20046;-90
2023/08/13 04:34:25;;;;;;;14.40;8.50;;;;;;;;;;8306817;28;20068;-90
2023/08/13 04:38:28;;;;;;;10.75;7.93;;;;;;;;;;8308408;28;20073;-91
2023/08/13 04:42:32;;;;;;;9.65;8.07;;;;;;;;;;8303144;28;20129;-90
2023/08/13 04:46:35;;;;;;;9.73;7.93;;;;;;;;;;8297860;22;20092;-91
2023/08/13 06:22:51;;;;;;;6.40;3.50;;;;;;;;;;8303879;23;20084;-91
2023/08/13 06:26:55;;;;;;;6.45;3.63;;;;;;;;;;8299840;28;20056;-90
2023/08/13 06:30:58;;;;;;;7.03;4.22;;;;;;;;;;8298704;28;20096;-91
2023/08/13 06:35:01;;;;;;;5.38;3.70;;;;;;;;;;8298691;28;20045;-91
2023/08/13 06:39:09;;;;;;;6.82;3.97;;;;;;;;;;8298752;28;20057;-92
2023/08/13 06:43:13;;;;;;;7.55;3.67;;;;;;;;;;8307353;28;20120;-93
2023/08/13 06:47:16;;;;;;;5.70;3.70;;;;;;;;;;8309064;28;20046;-90
2023/08/13 06:51:19;;;;;;;7.32;3.78;;;;;;;;;;8297625;28;20521;-91
2023/08/13 06:55:27;;;;;;;7.70;4.13;;;;;;;;;;8290552;28;20405;-90
2023/08/13 06:59:30;;;;;;;6.30;3.78;;;;;;;;;;8282235;28;20100;-91
2023/08/13 07:03:33;;;;;;;5.50;3.65;;;;;;;;;;8288276;28;20053;-90
2023/08/13 07:07:37;;;;;;;5.97;3.40;;;;;;;;;;8300299;28;20050;-90
2023/08/13 07:11:44;;;;;;;6.72;3.92;;;;;;;;;;8295030;28;20058;-91
2023/08/13 07:15:47;;;;;;;5.70;3.92;;;;;;;;;;8284063;28;20116;-91
2023/08/13 07:19:51;;;;;;;5.97;3.33;;;;;;;;;;8283421;28;20053;-92
2023/08/13 07:23:54;;;;;;;7.35;3.50;;;;;;;;;;8291083;28;20061;-92
2023/08/13 07:28:02;;;;;;;7.50;3.60;;;;;;;;;;8313919;28;20058;-95
2023/08/13 07:32:06;;;;;;;5.07;3.17;;;;;;;;;;8298115;28;20511;-91
2023/08/13 07:36:09;;;;;;;5.00;3.30;;;;;;;;;;8280978;28;20446;-91
2023/08/13 07:40:15;;;;;;;5.53;3.25;;;;;;;;;;8286875;28;20061;-93
2023/08/13 07:44:20;;;;;;;5.38;3.35;;;;;;;;;;8292385;28;20046;-91
2023/08/13 07:48:24;;;;;;;6.07;3.60;;;;;;;;;;8294988;28;20050;-93
2023/08/13 07:52:27;;;;;;;4.35;2.75;;;;;;;;;;8292972;28;20046;-92
2023/08/13 07:56:40;;;;;;;4.60;3.25;;;;;;;;;;8295517;28;20140;-92
2023/08/13 08:01:17;;;;;;;11.55;3.60;;;;;;;;;;8296341;28;20144;-90
2023/08/13 08:05:21;;;;;;;4.13;3.00;;;;;;;;;;8281199;28;20294;-90
2023/08/13 08:09:25;;;;;;;6.28;2.85;;;;;;;;;;8294610;28;20048;-91
2023/08/13 08:13:28;;;;;;;7.88;3.15;;;;;;;;;;8291188;28;20076;-90
2023/08/13 08:17:32;;;;;;;4.60;2.85;;;;;;;;;;8286261;28;20057;-90
2023/08/13 08:21:39;;;;;;;4.43;3.03;;;;;;;;;;8292124;28;20497;-90
2023/08/13 08:25:44;;;;;;;4.35;3.10;;;;;;;;;;8267829;28;20073;-90
2023/08/13 08:29:47;;;;;;;5.40;2.65;;;;;;;;;;8294216;28;20609;-91
2023/08/13 08:33:50;;;;;;;6.50;3.33;;;;;;;;;;8297382;28;20068;-90
2023/08/13 08:37:57;;;;;;;5.53;3.15;;;;;;;;;;8297004;28;20121;-89
2023/08/13 08:42:00;;;;;;;4.95;3.40;;;;;;;;;;8294759;28;20050;-90
2023/08/13 08:51:05;;;;;;;4.75;2.70;;;;;;;;;;8271572;28;20054;-93
2023/08/13 08:55:17;;;;;;;5.10;2.70;;;;;;;;;;8303536;28;20049;-91
2023/08/13 08:59:21;;;;;;;5.45;2.90;;;;;;;;;;8295794;28;20513;-95
2023/08/13 09:03:24;;;;;;;4.68;2.97;;;;;;;;;;8283519;28;20506;-90
2023/08/13 09:07:31;;;;;;;4.57;2.42;;;;;;;;;;8288981;28;20050;-91
2023/08/13 09:11:37;;;;;;;3.25;2.47;;;;;;;;;;8293672;28;20050;-91
2023/08/13 09:15:46;;;;;;;4.07;2.60;;;;;;;;;;8281566;28;20107;-90
2023/08/13 09:19:49;;;;;;;4.80;2.27;;;;;;;;;;8279025;28;20073;-91
2023/08/13 09:33:53;;;;;;;3.33;2.45;;;;;;;;;;8366914;23;20062;-92
2023/08/13 10:08:38;;;;;;;4.03;2.97;;;;;;;;;;8240322;28;20055;-91
2023/08/13 10:17:28;;;;;;;8.43;3.78;;;;;;;;;;8488452;23;20505;-91
2023/08/13 10:21:35;;;;;;;4.50;2.67;;;;;;;;;;8420959;23;20734;-90
2023/08/13 11:09:31;;;;;;;4.20;2.60;;;;;;;;;;8327286;28;20048;-91
2023/08/13 11:13:35;;;;;;;3.25;2.30;;;;;;;;;;8330472;28;20537;-89
2023/08/13 11:17:37;;;;;;;3.78;2.38;;;;;;;;;;8304840;28;20072;-90
2023/08/13 11:31:51;;;;;;;3.50;2.20;;;;;;;;;;8335231;23;20188;-91
2023/08/13 11:40:11;;;;;;;4.40;2.50;;;;;;;;;;8346952;23;20601;-92
2023/08/13 11:49:02;;;;;;;5.70;2.30;;;;;;;;;;8227537;23;20056;-92
2023/08/13 11:53:10;;;;;;;4.38;2.40;;;;;;;;;;8256316;28;20081;-91
2023/08/13 12:12:15;;;;;;;6.40;2.90;;;;;;;;;;8184447;29;20058;-92
2023/08/13 12:16:21;;;;;;;5.75;3.40;;;;;;;;;;8491360;23;20204;-90
2023/08/13 12:20:25;;;;;;;3.78;3.00;;;;;;;;;;8279084;28;20061;-92
2023/08/13 12:43:35;;;;;;;4.75;2.80;;;;;;;;;;9092673;23;20145;-90
2023/08/13 13:54:06;;;;;;;4.65;2.92;;;;;;;;;;8333290;23;20139;-93
2023/08/13 13:58:09;;;;;;;4.00;3.00;;;;;;;;;;8265984;28;20061;-91
2023/08/13 14:02:13;;;;;;;5.47;3.08;;;;;;;;;;8282724;28;20054;-90
2023/08/13 14:06:36;;;;;;;5.70;2.78;;;;;;;;;;8254363;28;20058;-91
2023/08/13 14:10:43;;;;;;;5.32;3.00;;;;;;;;;;8278904;28;20049;-91
2023/08/13 14:14:47;;;;;;;8.25;3.20;;;;;;;;;;8257360;28;20053;-91
2023/08/13 14:28:15;;;;;;;3.80;3.03;;;;;;;;;;8135681;29;20056;-90
2023/08/13 14:46:46;;;;;;;7.78;3.35;;;;;;;;;;8268038;28;20057;-91
2023/08/13 14:51:03;;;;;;;6.10;3.33;;;;;;;;;;8205797;28;20054;-92
2023/08/13 15:09:30;;;;;;;6.05;3.30;;;;;;;;;;8273485;28;20088;-90
2023/08/13 15:13:34;;;;;;;5.10;2.95;;;;;;;;;;8296825;28;20408;-90
2023/08/13 15:17:37;;;;;;;5.38;3.17;;;;;;;;;;8297859;28;20171;-92
2023/08/13 15:26:29;;;;;;;3.90;2.90;;;;;;;;;;8187688;29;20090;-92
2023/08/13 15:40:39;;;;;;;5.53;3.17;;;;;;;;;;8121509;28;20145;-92
2023/08/13 15:44:42;;;;;;;4.25;3.13;;;;;;;;;;8211711;28;20173;-91
2023/08/13 15:48:48;;;;;;;3.75;3.00;;;;;;;;;;8217639;28;20077;-91
2023/08/13 15:52:52;;;;;;;5.32;3.20;;;;;;;;;;8212635;28;20062;-90
2023/08/13 15:57:04;;;;;;;5.80;3.65;;;;;;;;;;8205146;28;20547;-90
2023/08/13 16:06:58;;;;;;;6.65;4.00;;;;;;;;;;8215791;28;20058;-90
2023/08/13 16:11:01;;;;;;;8.57;4.18;;;;;;;;;;8223782;28;20061;-90
2023/08/13 16:15:09;;;;;;;6.25;3.95;;;;;;;;;;8312343;28;20050;-90
2023/08/13 16:19:12;;;;;;;10.77;4.97;;;;;;;;;;8307806;28;20104;-89
2023/08/13 16:23:16;;;;;;;6.90;4.07;;;;;;;;;;8279449;28;20066;-89
2023/08/13 16:27:19;;;;;;;8.82;4.88;;;;;;;;;;8271319;28;20112;-90
2023/08/13 16:31:24;;;;;;;8.43;4.80;;;;;;;;;;8284780;28;20474;-90
2023/08/13 16:35:27;;;;;;;8.38;5.10;;;;;;;;;;8264123;28;20062;-90
2023/08/13 16:39:31;;;;;;;12.02;5.30;;;;;;;;;;8292017;28;20050;-91
2023/08/13 16:43:37;;;;;;;8.15;5.13;;;;;;;;;;8296185;28;20088;-91
2023/08/13 16:47:43;;;;;;;8.23;5.53;;;;;;;;;;8280177;28;20077;-90
2023/08/13 16:51:46;;;;;;;7.75;5.68;;;;;;;;;;8302096;28;20536;-91
2023/08/13 16:55:51;;;;;;;10.57;5.60;;;;;;;;;;8302786;28;20450;-90
2023/08/13 17:00:00;;;;;;;10.60;6.10;;;;;;;;;;8299728;28;20052;-89
2023/08/13 17:04:06;;;;;;;10.20;5.97;;;;;;;;;;8283942;28;20088;-89
2023/08/13 17:08:11;;;;;;;10.80;6.47;;;;;;;;;;8299382;28;20061;-90
2023/08/13 17:12:16;;;;;;;13.35;7.45;;;;;;;;;;8431124;23;20512;-91
2023/08/13 17:16:19;;;;;;;10.25;7.80;;;;;;;;;;8354422;28;20052;-90
2023/08/13 17:20:25;;;;;;;29.40;24.85;;;;;;;;;;8365348;28;20135;-89
2023/08/13 17:24:28;;;;;;;14.60;9.65;;;;;;;;;;8366973;28;20048;-89
2023/08/13 17:28:32;;;;;;;17.17;11.65;;;;;;;;;;8335605;28;20057;-89
2023/08/13 17:32:35;;;;;;;10.02;8.68;;;;;;;;;;8343558;28;20053;-90
2023/08/13 17:36:40;;;;;;;12.82;10.10;;;;;;;;;;8362372;28;20049;-90
2023/08/13 17:41:05;;;;;;;12.85;10.48;;;;;;;;;;8357551;28;20080;-89
2023/08/13 17:45:11;;;;;;;17.95;11.05;;;;;;;;;;8327659;28;20045;-89
2023/08/13 17:49:18;;;;;;;17.88;14.80;;;;;;;;;;8348612;28;20405;-89
2023/08/13 17:59:13;;;;;;;19.35;16.00;;;;;;;;;;8309782;23;20064;-90
2023/08/13 18:07:34;;;;;;;136.52;17.20;;;;;;;;;;6509308;26;20086;-89
2023/08/13 18:17:05;;;;;;;23.17;16.15;;;;;;;;;;8161104;29;20450;-89
2023/08/13 18:21:52;;;;;;;19.03;12.80;;;;;;;;;;8129571;29;20454;-90
2023/08/13 18:25:56;;;;;;;17.15;11.20;;;;;;;;;;8189953;28;20059;-93
2023/08/13 18:30:02;;;;;;;16.05;11.38;;;;;;;;;;8241220;28;20055;-93
2023/08/13 18:45:06;;;;;;;17.58;13.00;;;;;;;;;;8154771;29;20135;-92
2023/08/13 18:49:35;;;;;;;17.65;13.52;;;;;;;;;;8150532;29;20063;-92
2023/08/13 18:58:55;;;;;;;23.13;15.30;;;;;;;;;;8140557;29;20286;-91
2023/08/13 19:03:03;;;;;;;41.55;30.98;;;;;;;;;;8149601;29;20064;-93
2023/08/13 19:07:08;;;;;;;33.17;24.70;;;;;;;;;;8130957;29;20062;-92
2023/08/13 19:16:46;;;;;;;24.67;16.17;;;;;;;;;;8386353;23;20065;-93
2023/08/13 19:31:17;;;;;;;24.42;14.85;;;;;;;;;;8293913;28;20049;-96
2023/08/13 19:35:28;;;;;;;22.38;14.00;;;;;;;;;;8329287;23;20442;-95
2023/08/13 19:39:37;;;;;;;19.85;14.23;;;;;;;;;;8288422;28;20057;-95
2023/08/13 19:43:45;;;;;;;17.65;13.20;;;;;;;;;;8290447;28;20080;-95
2023/08/13 19:48:00;;;;;;;22.92;14.52;;;;;;;;;;8285708;28;20487;-94
